createdAt,value
2022-11-17T00:01:07.167Z,19.38
2022-11-17T00:03:52.845Z,11.82
2022-11-17T00:06:37.866Z,11.57
2022-11-17T00:09:23.243Z,13.38
2022-11-17T00:12:32.417Z,12.18
2022-11-17T00:15:17.906Z,20.83
2022-11-17T00:18:21.548Z,17.35
2022-11-17T00:21:23.405Z,21.98
2022-11-17T00:24:08.345Z,18.83
2022-11-17T00:27:02.655Z,34.88
2022-11-17T00:29:47.654Z,21.65
2022-11-17T00:32:51.636Z,25.70
2022-11-17T00:35:36.761Z,26.13
2022-11-17T00:38:21.988Z,36.53
2022-11-17T00:41:07.132Z,33.17
2022-11-17T00:43:51.883Z,24.45
2022-11-17T00:46:37.999Z,29.38
2022-11-17T00:49:26.503Z,31.80
2022-11-17T00:52:11.813Z,23.38
2022-11-17T00:54:56.892Z,31.92
2022-11-17T00:57:42.121Z,36.22
2022-11-17T01:00:27.256Z,28.25
2022-11-17T01:03:12.449Z,28.52
2022-11-17T01:06:13.586Z,30.08
2022-11-17T01:09:00.587Z,24.48
2022-11-17T01:11:47.370Z,29.10
2022-11-17T01:14:32.693Z,25.67
2022-11-17T01:17:17.448Z,24.52
2022-11-17T01:20:02.478Z,21.88
2022-11-17T01:22:47.517Z,25.70
2022-11-17T01:25:32.836Z,32.05
2022-11-17T01:28:18.141Z,28.08
2022-11-17T01:31:16.519Z,27.73
2022-11-17T01:34:01.803Z,33.65
2022-11-17T01:37:05.598Z,27.00
2022-11-17T01:39:51.033Z,28.55
2022-11-17T01:42:41.922Z,34.76
2022-11-17T01:45:27.104Z,31.27
2022-11-17T01:48:15.179Z,29.42
2022-11-17T01:51:00.993Z,26.20
2022-11-17T01:53:50.254Z,25.92
2022-11-17T01:56:40.138Z,20.55
2022-11-17T01:59:28.445Z,26.60
2022-11-17T02:02:13.614Z,25.17
2022-11-17T02:05:08.076Z,25.40
2022-11-17T02:07:56.238Z,26.65
2022-11-17T02:10:45.806Z,29.35
2022-11-17T02:13:35.475Z,27.83
2022-11-17T02:16:20.907Z,24.30
2022-11-17T02:19:07.867Z,23.42
2022-11-17T02:22:21.331Z,26.90
2022-11-17T02:25:21.758Z,22.83
2022-11-17T02:28:20.660Z,26.98
2022-11-17T02:31:17.818Z,17.13
2022-11-17T02:34:29.781Z,17.15
2022-11-17T02:37:31.617Z,13.20
2022-11-17T02:40:31.052Z,14.70
2022-11-17T02:43:38.027Z,16.77
2022-11-17T02:46:25.693Z,7.95
2022-11-17T02:49:25.663Z,11.93
2022-11-17T02:52:12.450Z,12.85
2022-11-17T02:55:09.929Z,12.52
2022-11-17T02:57:55.183Z,5.10
2022-11-17T03:00:55.664Z,6.35
2022-11-17T03:04:25.921Z,6.80
2022-11-17T03:10:14.267Z,7.05
2022-11-17T03:13:18.244Z,7.07
2022-11-17T03:16:15.665Z,4.35
2022-11-17T03:19:15.903Z,2.85
2022-11-17T03:22:12.001Z,2.33
2022-11-17T03:25:02.964Z,3.30
2022-11-17T03:27:56.325Z,3.28
2022-11-17T03:30:44.128Z,3.35
2022-11-17T03:33:30.293Z,1.38
2022-11-17T03:36:24.044Z,0.40
2022-11-17T03:39:16.339Z,1.20
2022-11-17T03:42:13.053Z,0.90
2022-11-17T03:45:04.440Z,0.83
2022-11-17T03:47:57.037Z,1.40
2022-11-17T03:50:55.425Z,2.10
2022-11-17T03:53:41.751Z,0.75
2022-11-17T03:56:51.196Z,1.75
2022-11-17T03:59:51.937Z,0.75
2022-11-17T04:02:40.254Z,0.40
2022-11-17T04:05:25.541Z,0.88
2022-11-17T04:08:10.643Z,0.45
2022-11-17T04:11:15.276Z,0.73
2022-11-17T04:14:19.141Z,0.65
2022-11-17T04:17:04.377Z,0.40
2022-11-17T04:19:49.223Z,1.38
2022-11-17T04:22:34.060Z,1.95
2022-11-17T04:25:39.006Z,1.27
2022-11-17T04:28:37.460Z,3.03
2022-11-17T04:31:30.579Z,0.75
2022-11-17T04:34:15.533Z,1.33
2022-11-17T04:37:05.429Z,1.48
2022-11-17T04:39:53.532Z,4.75
2022-11-17T04:42:38.693Z,1.83
2022-11-17T04:45:26.365Z,1.35
2022-11-17T04:48:11.205Z,4.10
2022-11-17T04:50:57.176Z,1.38
2022-11-17T04:53:43.272Z,0.65
2022-11-17T04:56:29.353Z,3.00
2022-11-17T04:59:14.688Z,2.38
2022-11-17T05:02:05.320Z,1.40
2022-11-17T05:04:56.795Z,1.05
2022-11-17T05:07:41.674Z,4.15
2022-11-17T05:10:45.232Z,2.38
2022-11-17T05:13:30.449Z,1.33
2022-11-17T05:16:34.149Z,2.10
2022-11-17T05:19:22.731Z,4.57
2022-11-17T05:22:27.878Z,4.30
2022-11-17T05:25:13.086Z,4.97
2022-11-17T05:27:58.176Z,2.25
2022-11-17T05:30:43.246Z,1.70
2022-11-17T05:33:28.158Z,3.75
2022-11-17T05:36:14.860Z,2.20
2022-11-17T05:39:00.024Z,3.97
2022-11-17T05:41:45.184Z,2.17
2022-11-17T05:44:30.343Z,3.25
2022-11-17T05:47:15.637Z,3.00
2022-11-17T05:50:00.884Z,2.80
2022-11-17T05:52:45.857Z,3.10
2022-11-17T05:55:31.189Z,2.13
2022-11-17T05:58:30.133Z,4.28
2022-11-17T06:01:17.576Z,2.10
2022-11-17T06:04:04.600Z,1.63
2022-11-17T06:06:50.401Z,4.20
2022-11-17T06:09:39.082Z,1.48
2022-11-17T06:12:24.357Z,2.43
2022-11-17T06:15:09.972Z,1.63
2022-11-17T06:18:01.374Z,1.25
2022-11-17T06:20:49.657Z,2.55
2022-11-17T06:23:37.193Z,4.25
2022-11-17T06:26:22.648Z,4.05
2022-11-17T06:29:09.734Z,3.05
2022-11-17T06:31:58.036Z,2.05
2022-11-17T06:34:46.152Z,3.53
2022-11-17T06:37:34.272Z,2.72
2022-11-17T06:40:19.575Z,2.67
2022-11-17T06:43:10.871Z,1.77
2022-11-17T06:45:55.957Z,1.95
2022-11-17T06:48:41.477Z,1.85
2022-11-17T06:51:26.766Z,4.15
2022-11-17T06:54:12.410Z,6.68
2022-11-17T06:56:58.282Z,4.68
2022-11-17T06:59:43.242Z,1.73
2022-11-17T07:02:28.263Z,1.58
2022-11-17T07:05:13.505Z,2.53
2022-11-17T07:08:00.298Z,3.03
2022-11-17T07:10:49.300Z,2.35
2022-11-17T07:13:35.052Z,2.95
2022-11-17T07:16:23.845Z,2.88
2022-11-17T07:19:10.625Z,0.95
2022-11-17T07:21:55.524Z,4.15
2022-11-17T07:24:40.654Z,4.20
2022-11-17T07:27:26.039Z,1.73
2022-11-17T07:30:11.722Z,3.60
2022-11-17T07:33:00.923Z,2.97
2022-11-17T07:35:46.671Z,2.08
2022-11-17T07:38:36.300Z,3.50
2022-11-17T07:44:06.490Z,1.48
2022-11-17T07:46:51.762Z,3.88
2022-11-17T07:49:37.037Z,1.83
2022-11-17T07:52:22.319Z,1.13
2022-11-17T07:55:07.865Z,6.18
2022-11-17T07:58:00.650Z,3.75
2022-11-17T08:00:45.642Z,3.75
2022-11-17T08:03:30.608Z,2.95
2022-11-17T08:06:16.951Z,3.33
2022-11-17T08:09:01.953Z,4.60
2022-11-17T08:11:47.196Z,4.40
2022-11-17T08:14:32.583Z,1.33
2022-11-17T08:17:17.889Z,3.70
2022-11-17T08:20:05.120Z,4.35
2022-11-17T08:22:51.669Z,7.95
2022-11-17T08:25:36.895Z,4.38
2022-11-17T08:28:22.588Z,3.92
2022-11-17T08:31:08.095Z,2.40
2022-11-17T08:33:53.288Z,3.25
2022-11-17T08:36:38.627Z,5.70
2022-11-17T08:39:23.770Z,6.07
2022-11-17T08:42:08.905Z,6.22
2022-11-17T08:44:54.187Z,5.30
2022-11-17T08:47:40.124Z,4.80
2022-11-17T08:50:25.997Z,8.60
2022-11-17T08:53:14.595Z,3.25
2022-11-17T08:56:00.061Z,5.95
2022-11-17T08:58:45.082Z,4.03
2022-11-17T09:01:30.452Z,3.95
2022-11-17T09:04:15.778Z,3.10
2022-11-17T09:07:00.831Z,5.15
2022-11-17T09:09:46.367Z,6.30
2022-11-17T09:12:31.556Z,4.25
2022-11-17T09:15:16.830Z,5.20
2022-11-17T09:18:03.163Z,7.03
2022-11-17T09:20:48.218Z,6.72
2022-11-17T09:23:33.880Z,6.82
2022-11-17T09:26:19.490Z,6.82
2022-11-17T09:29:04.866Z,2.85
2022-11-17T09:31:50.134Z,6.63
2022-11-17T09:34:35.470Z,7.93
2022-11-17T09:37:20.666Z,6.03
2022-11-17T09:40:06.827Z,4.72
2022-11-17T09:42:52.206Z,5.47
2022-11-17T09:45:39.069Z,4.00
2022-11-17T09:48:45.246Z,6.00
2022-11-17T09:51:33.892Z,8.30
2022-11-17T09:54:33.835Z,4.35
2022-11-17T09:57:28.928Z,2.83
2022-11-17T10:00:19.204Z,3.75
2022-11-17T10:03:14.768Z,8.48
2022-11-17T10:06:03.888Z,4.53
2022-11-17T10:08:58.370Z,10.57
2022-11-17T10:11:44.316Z,7.10
2022-11-17T10:14:30.145Z,5.55
2022-11-17T10:17:15.753Z,5.63
2022-11-17T10:20:00.788Z,5.65
2022-11-17T10:22:47.634Z,4.80
2022-11-17T10:25:42.520Z,3.75
2022-11-17T10:28:30.920Z,5.20
2022-11-17T10:31:18.032Z,8.82
2022-11-17T10:34:03.698Z,5.47
2022-11-17T10:36:48.689Z,8.07
2022-11-17T10:39:37.349Z,4.38
2022-11-17T10:42:27.762Z,7.63
2022-11-17T10:45:17.892Z,4.70
2022-11-17T10:48:20.063Z,6.90
2022-11-17T10:51:19.290Z,2.63
2022-11-17T10:54:04.144Z,3.53
2022-11-17T10:56:56.030Z,6.18
2022-11-17T10:59:57.582Z,3.47
2022-11-17T11:02:43.277Z,5.05
2022-11-17T11:05:28.490Z,4.95
2022-11-17T11:08:23.558Z,4.35
2022-11-17T11:11:40.389Z,8.85
2022-11-17T11:14:28.760Z,7.93
2022-11-17T11:17:16.538Z,5.68
2022-11-17T11:20:01.893Z,3.80
2022-11-17T11:23:04.272Z,5.60
2022-11-17T11:26:02.792Z,7.68
2022-11-17T11:28:56.905Z,4.13
2022-11-17T11:31:54.116Z,4.82
2022-11-17T11:35:17.152Z,6.03
2022-11-17T11:38:30.560Z,3.47
2022-11-17T11:41:19.148Z,4.35
2022-11-17T11:44:26.045Z,5.75
2022-11-17T11:47:35.788Z,7.55
2022-11-17T11:50:59.101Z,3.38
2022-11-17T11:54:24.696Z,2.38
2022-11-17T11:57:13.804Z,6.40
2022-11-17T12:00:04.611Z,5.30
2022-11-17T12:02:53.592Z,1.80
2022-11-17T12:05:38.865Z,2.03
2022-11-17T12:08:42.398Z,3.15
2022-11-17T12:11:46.833Z,4.13
2022-11-17T12:14:36.719Z,7.28
2022-11-17T12:23:32.928Z,1.90
2022-11-17T12:26:25.875Z,3.75
2022-11-17T12:29:31.869Z,7.30
2022-11-17T12:32:45.195Z,4.07
2022-11-17T12:35:33.540Z,3.72
2022-11-17T12:38:19.897Z,6.72
2022-11-17T12:41:06.334Z,4.53
2022-11-17T12:43:51.323Z,3.15
2022-11-17T12:46:36.562Z,4.47
2022-11-17T12:49:36.491Z,5.60
2022-11-17T12:52:37.498Z,5.25
2022-11-17T12:55:41.674Z,5.63
2022-11-17T12:58:48.898Z,7.60
2022-11-17T13:02:03.908Z,6.97
2022-11-17T13:04:55.203Z,5.47
2022-11-17T13:07:40.470Z,7.43
2022-11-17T13:10:31.160Z,6.22
2022-11-17T13:13:19.389Z,3.25
2022-11-17T13:16:04.848Z,5.85
2022-11-17T13:18:50.098Z,4.00
2022-11-17T13:21:35.375Z,3.63
2022-11-17T13:24:50.561Z,4.22
2022-11-17T13:27:36.226Z,3.30
2022-11-17T13:30:25.707Z,4.22
2022-11-17T13:33:19.889Z,4.47
2022-11-17T13:36:19.797Z,3.88
2022-11-17T13:39:19.655Z,3.63
2022-11-17T13:42:08.006Z,3.40
2022-11-17T13:44:56.003Z,4.70
2022-11-17T13:47:45.357Z,2.33
2022-11-17T13:50:30.861Z,2.90
2022-11-17T13:53:26.668Z,4.18
2022-11-17T13:56:33.880Z,3.28
2022-11-17T13:59:26.084Z,4.00
2022-11-17T14:02:19.325Z,3.15
2022-11-17T14:05:14.211Z,4.82
2022-11-17T14:08:14.033Z,4.40
2022-11-17T14:14:01.185Z,3.50
2022-11-17T14:16:46.539Z,4.35
2022-11-17T14:19:33.985Z,6.03
2022-11-17T14:22:31.406Z,4.82
2022-11-17T14:25:17.153Z,3.70
2022-11-17T14:28:02.398Z,4.15
2022-11-17T14:30:49.057Z,6.85
2022-11-17T14:33:33.824Z,5.57
2022-11-17T14:36:18.866Z,7.07
2022-11-17T14:39:10.780Z,5.68
2022-11-17T14:41:55.760Z,2.42
2022-11-17T14:44:40.933Z,5.85
2022-11-17T14:47:25.834Z,2.72
2022-11-17T14:50:17.727Z,4.68
2022-11-17T14:53:02.955Z,4.00
2022-11-17T14:55:47.952Z,4.13
2022-11-17T14:58:33.114Z,5.07
2022-11-17T15:01:25.495Z,2.53
2022-11-17T15:04:42.947Z,4.18
2022-11-17T15:07:19.292Z,5.45
2022-11-17T15:10:05.971Z,6.05
2022-11-17T15:12:50.997Z,5.28
2022-11-17T15:15:36.509Z,3.47
2022-11-17T15:18:21.698Z,5.82
2022-11-17T15:21:09.629Z,6.07
2022-11-17T15:23:54.674Z,4.13
2022-11-17T15:26:39.765Z,8.02
2022-11-17T15:29:25.093Z,3.67
2022-11-17T15:32:10.935Z,8.05
2022-11-17T15:34:56.210Z,5.18
2022-11-17T15:37:41.279Z,2.45
2022-11-17T15:40:26.526Z,3.40
2022-11-17T15:43:11.838Z,4.72
2022-11-17T15:46:11.374Z,3.05
2022-11-17T15:48:56.718Z,1.95
2022-11-17T15:51:41.550Z,2.40
2022-11-17T15:54:26.553Z,3.35
2022-11-17T15:57:11.552Z,3.08
2022-11-17T15:59:56.516Z,4.18
2022-11-17T16:02:42.105Z,5.40
2022-11-17T16:05:27.069Z,6.43
2022-11-17T16:08:12.217Z,1.05
2022-11-17T16:10:57.654Z,5.65
2022-11-17T16:13:42.860Z,3.67
2022-11-17T16:16:36.078Z,3.86
2022-11-17T16:19:21.465Z,4.15
2022-11-17T16:22:06.662Z,1.88
2022-11-17T16:24:51.946Z,6.50
2022-11-17T16:27:37.166Z,2.67
2022-11-17T16:30:22.504Z,4.82
2022-11-17T16:33:13.084Z,8.65
2022-11-17T16:36:04.896Z,6.88
2022-11-17T16:39:00.765Z,14.88
2022-11-17T16:41:46.547Z,5.15
2022-11-17T16:44:31.624Z,2.60
2022-11-17T16:47:16.811Z,5.28
2022-11-17T16:50:03.547Z,3.55
2022-11-17T16:52:48.768Z,7.35
2022-11-17T16:55:35.338Z,5.68
2022-11-17T16:58:20.488Z,3.65
2022-11-17T17:01:13.373Z,4.63
2022-11-17T17:04:04.073Z,3.88
2022-11-17T17:06:49.419Z,5.97
2022-11-17T17:09:34.368Z,6.32
2022-11-17T17:12:19.555Z,5.40
2022-11-17T17:15:05.268Z,6.40
2022-11-17T17:17:50.347Z,5.93
2022-11-17T17:20:35.908Z,6.60
2022-11-17T17:23:21.265Z,5.07
2022-11-17T17:26:14.054Z,4.83
2022-11-17T17:29:00.670Z,7.75
2022-11-17T17:31:45.797Z,7.57
2022-11-17T17:34:31.152Z,3.05
2022-11-17T17:37:16.856Z,6.68
2022-11-17T17:40:01.861Z,6.07
2022-11-17T17:42:47.174Z,6.57
2022-11-17T17:45:32.229Z,8.23
2022-11-17T17:48:17.416Z,4.28
2022-11-17T17:51:08.025Z,4.30
2022-11-17T17:53:58.549Z,6.25
2022-11-17T17:56:44.262Z,6.35
2022-11-17T17:59:29.142Z,8.38
2022-11-17T18:02:14.125Z,7.82
2022-11-17T18:04:59.202Z,5.35
2022-11-17T18:07:44.527Z,4.32
2022-11-17T18:10:29.651Z,3.28
2022-11-17T18:13:14.760Z,6.28
2022-11-17T18:16:03.196Z,2.80
2022-11-17T18:18:48.951Z,5.40
2022-11-17T18:21:34.956Z,6.25
2022-11-17T18:24:20.107Z,5.82
2022-11-17T18:27:05.097Z,5.68
2022-11-17T18:29:50.372Z,11.30
2022-11-17T18:32:35.605Z,4.38
2022-11-17T18:35:20.591Z,4.72
2022-11-17T18:38:05.479Z,4.47
2022-11-17T18:40:50.297Z,3.92
2022-11-17T18:43:36.127Z,3.80
2022-11-17T18:46:23.618Z,4.28
2022-11-17T18:49:08.901Z,3.00
2022-11-17T18:51:53.821Z,7.07
2022-11-17T18:54:39.135Z,8.50
2022-11-17T18:57:24.136Z,7.85
2022-11-17T19:00:09.882Z,8.10
2022-11-17T19:02:55.304Z,4.85
2022-11-17T19:05:40.321Z,11.35
2022-11-17T19:08:25.347Z,4.72
2022-11-17T19:11:11.764Z,6.50
2022-11-17T19:13:58.980Z,3.28
2022-11-17T19:16:45.317Z,6.00
2022-11-17T19:19:30.501Z,4.88
2022-11-17T19:22:15.490Z,8.95
2022-11-17T19:25:00.839Z,6.80
2022-11-17T19:27:46.019Z,4.50
2022-11-17T19:30:31.412Z,3.05
2022-11-17T19:33:18.639Z,5.32
2022-11-17T19:36:06.465Z,6.50
2022-11-17T19:38:53.424Z,8.10
2022-11-17T19:41:39.894Z,4.57
2022-11-17T19:44:24.649Z,8.30
2022-11-17T19:47:10.244Z,6.25
2022-11-17T19:49:55.816Z,4.80
2022-11-17T19:52:40.947Z,11.10
2022-11-17T19:55:26.151Z,6.43
2022-11-17T19:58:11.850Z,6.43
2022-11-17T20:00:57.390Z,4.75
2022-11-17T20:03:43.055Z,4.75
2022-11-17T20:06:31.874Z,6.32
2022-11-17T20:09:17.206Z,7.00
2022-11-17T20:12:03.263Z,10.30
2022-11-17T20:14:48.573Z,3.72
2022-11-17T20:17:34.815Z,8.25
2022-11-17T20:20:19.981Z,8.07
2022-11-17T20:23:05.264Z,4.68
2022-11-17T20:25:50.683Z,7.93
2022-11-17T20:28:36.903Z,6.88
2022-11-17T20:31:24.694Z,3.75
2022-11-17T20:34:12.564Z,4.50
2022-11-17T20:36:57.560Z,5.85
2022-11-17T20:39:42.416Z,3.72
2022-11-17T20:42:27.450Z,2.05
2022-11-17T20:45:12.631Z,7.07
2022-11-17T20:47:57.713Z,5.78
2022-11-17T20:50:42.854Z,3.28
2022-11-17T20:53:28.647Z,4.40
2022-11-17T20:56:16.134Z,6.57
2022-11-17T20:59:01.091Z,5.15
2022-11-17T21:01:46.516Z,7.90
2022-11-17T21:04:31.913Z,7.43
2022-11-17T21:07:17.161Z,4.65
2022-11-17T21:10:02.401Z,12.35
2022-11-17T21:12:47.456Z,6.28
2022-11-17T21:15:32.447Z,4.68
2022-11-17T21:18:26.413Z,12.57
2022-11-17T21:21:11.712Z,6.35
2022-11-17T21:23:56.755Z,8.05
2022-11-17T21:26:41.970Z,4.38
2022-11-17T21:29:27.145Z,7.53
2022-11-17T21:32:11.984Z,7.93
2022-11-17T21:34:57.768Z,6.60
2022-11-17T21:37:42.787Z,5.25
2022-11-17T21:40:28.094Z,4.18
2022-11-17T21:43:12.996Z,6.03
2022-11-17T21:46:07.020Z,4.93
2022-11-17T21:48:54.288Z,6.05
2022-11-17T21:51:39.611Z,4.60
2022-11-17T21:54:24.839Z,8.48
2022-11-17T21:57:10.070Z,5.32
2022-11-17T21:59:55.239Z,3.85
2022-11-17T22:02:40.132Z,5.55
2022-11-17T22:05:25.113Z,10.65
2022-11-17T22:08:10.271Z,4.45
2022-11-17T22:10:55.405Z,6.28
2022-11-17T22:13:41.154Z,6.40
2022-11-17T22:16:26.618Z,6.88
2022-11-17T22:19:12.735Z,4.85
2022-11-17T22:21:57.978Z,3.42
2022-11-17T22:24:48.443Z,5.40
2022-11-17T22:27:35.436Z,13.02
2022-11-17T22:30:20.620Z,4.28
2022-11-17T22:33:05.627Z,3.97
2022-11-17T22:35:50.796Z,6.57
2022-11-17T22:38:44.924Z,6.42
2022-11-17T22:41:30.333Z,4.47
2022-11-17T22:44:16.299Z,4.60
2022-11-17T22:47:01.150Z,7.18
2022-11-17T22:49:46.169Z,5.32
2022-11-17T22:52:30.900Z,5.43
2022-11-17T22:55:16.094Z,7.28
2022-11-17T22:58:01.208Z,4.30
2022-11-17T23:00:46.413Z,2.03
2022-11-17T23:03:31.879Z,4.03
2022-11-17T23:06:17.092Z,6.53
2022-11-17T23:09:02.388Z,5.40
2022-11-17T23:11:47.840Z,6.38
2022-11-17T23:14:33.095Z,6.55
2022-11-17T23:17:19.625Z,4.85
2022-11-17T23:20:05.243Z,2.10
2022-11-17T23:22:54.737Z,6.35
2022-11-17T23:25:39.927Z,14.73
2022-11-17T23:28:24.804Z,6.97
2022-11-17T23:31:12.188Z,5.28
2022-11-17T23:33:57.592Z,3.58
2022-11-17T23:36:42.606Z,6.45
2022-11-17T23:39:27.546Z,4.30
2022-11-17T23:42:12.416Z,6.55
2022-11-17T23:44:57.273Z,5.35
2022-11-17T23:47:42.165Z,8.07
2022-11-17T23:50:27.270Z,4.15
2022-11-17T23:53:12.264Z,8.55
2022-11-17T23:55:57.700Z,3.35
2022-11-17T23:58:44.078Z,4.70
